Time;durP1;ratioP1;P1;durP2;ratioP2;P2;SDS_P1;SDS_P2;PMS_P1;PMS_P2;Temp;Humidity;BMP_temperature;BMP_pressure;BME280_temperature;BME280_humidity;BME280_pressure;Samples;Min_cycle;Max_cycle;Signal;HPM_P1;HPM_P2
2022/03/19 00:00:38;;;;;;;58.70;32.60;;;;;;;2.75;41.35;103106.23;106156;1274;25463;-72
2022/03/19 00:03:05;;;;;;;59.90;35.30;;;;;;;2.74;41.28;103102.87;105954;1275;25252;-73
2022/03/19 00:05:31;;;;;;;59.30;33.20;;;;;;;2.69;41.45;103102.94;105518;1281;22573;-76
2022/03/19 00:07:58;;;;;;;69.30;35.70;;;;;;;2.63;41.49;103100.10;105220;1281;22782;-74
2022/03/19 00:10:24;;;;;;;62.60;34.10;;;;;;;2.59;41.62;103098.98;105189;1281;25254;-83
2022/03/19 00:12:50;;;;;;;58.80;34.10;;;;;;;2.57;41.77;103097.61;105528;1281;25426;-78
2022/03/19 00:15:17;;;;;;;60.40;33.30;;;;;;;2.54;41.85;103098.75;105531;1281;25339;-75
2022/03/19 00:17:43;;;;;;;63.50;33.80;;;;;;;2.55;41.86;103099.39;105487;1281;24267;-74
2022/03/19 00:20:10;;;;;;;64.70;33.20;;;;;;;2.60;41.94;103102.31;106057;1281;22789;-73
2022/03/19 00:22:39;;;;;;;58.80;33.00;;;;;;;2.56;42.04;103103.98;107715;1281;22685;-73
2022/03/19 00:25:08;;;;;;;58.10;32.60;;;;;;;2.49;42.29;103098.79;106818;1274;23490;-73
2022/03/19 00:27:34;;;;;;;61.00;32.60;;;;;;;2.44;42.39;103093.46;107944;1273;22561;-72
2022/03/19 00:30:00;;;;;;;54.70;32.40;;;;;;;2.44;42.50;103092.05;106607;1274;25447;-72
2022/03/19 00:32:26;;;;;;;52.40;32.40;;;;;;;2.44;42.49;103090.87;106864;1273;22549;-84
2022/03/19 00:34:53;;;;;;;60.80;33.60;;;;;;;2.44;42.69;103091.69;107205;1273;23064;-72
2022/03/19 00:37:19;;;;;;;68.00;35.00;;;;;;;2.46;42.58;103091.83;107898;1273;23153;-72
2022/03/19 00:39:45;;;;;;;66.40;33.70;;;;;;;2.47;42.59;103092.60;108009;1273;25268;-71
2022/03/19 00:42:11;;;;;;;54.90;32.90;;;;;;;2.47;42.64;103092.62;107111;1274;22535;-73
2022/03/19 00:44:38;;;;;;;59.30;33.70;;;;;;;2.48;42.70;103092.13;106190;1274;25392;-70
2022/03/19 00:47:04;;;;;;;56.80;34.80;;;;;;;2.50;42.79;103093.31;106176;1273;25256;-75
2022/03/19 00:49:30;;;;;;;68.90;33.90;;;;;;;2.47;42.84;103093.32;106150;1273;22598;-78
2022/03/19 00:51:56;;;;;;;59.70;33.70;;;;;;;2.41;42.79;103090.44;106042;1274;24289;-76
2022/03/19 00:54:22;;;;;;;64.00;34.40;;;;;;;2.34;42.84;103090.50;106079;1273;22719;-74
2022/03/19 00:56:49;;;;;;;61.10;35.30;;;;;;;2.32;43.01;103094.36;106078;1273;25273;-74
2022/03/19 00:59:15;;;;;;;65.20;34.20;;;;;;;2.28;43.21;103087.46;106044;1274;23927;-74
2022/03/19 01:01:42;;;;;;;69.50;35.20;;;;;;;2.24;43.36;103084.77;106035;1274;22687;-74
2022/03/19 01:04:08;;;;;;;64.80;35.40;;;;;;;2.25;43.40;103079.11;106106;1275;24400;-73
2022/03/19 01:06:34;;;;;;;68.70;36.50;;;;;;;2.26;43.52;103077.30;106233;1273;26619;-74
2022/03/19 01:09:00;;;;;;;65.40;36.60;;;;;;;2.29;43.48;103076.05;106142;1273;24292;-76
2022/03/19 01:11:27;;;;;;;67.30;37.90;;;;;;;2.30;43.52;103071.27;105916;1277;22583;-73
2022/03/19 01:13:55;;;;;;;70.50;38.40;;;;;;;2.31;43.63;103071.54;106081;1274;22558;-75
2022/03/19 01:16:23;;;;;;;79.50;39.00;;;;;;;2.32;43.64;103071.20;106088;1275;22617;-78
2022/03/19 01:18:50;;;;;;;68.20;38.10;;;;;;;2.24;43.70;103068.83;105991;1275;23125;-74
2022/03/19 01:21:17;;;;;;;65.00;37.20;;;;;;;2.21;43.80;103063.94;106115;1275;25387;-74
2022/03/19 01:23:43;;;;;;;66.10;38.70;;;;;;;2.15;43.91;103061.77;105731;1279;25351;-72
2022/03/19 01:26:10;;;;;;;68.10;39.90;;;;;;;2.17;44.08;103063.95;105506;1281;26692;-73
2022/03/19 01:28:37;;;;;;;70.40;39.10;;;;;;;2.18;44.12;103072.77;105613;1278;25426;-73
2022/03/19 01:31:03;;;;;;;66.90;38.30;;;;;;;2.16;44.14;103071.92;105616;1278;22850;-75
2022/03/19 01:33:29;;;;;;;65.10;38.90;;;;;;;2.14;44.21;103070.52;105508;1278;22710;-74
2022/03/19 01:35:56;;;;;;;70.80;39.50;;;;;;;2.15;44.40;103070.77;105583;1278;22688;-73
2022/03/19 01:38:22;;;;;;;74.80;40.80;;;;;;;2.16;44.60;103075.70;105487;1280;22868;-75
2022/03/19 01:40:48;;;;;;;69.30;38.30;;;;;;;2.18;44.63;103079.67;105706;1277;25262;-74
2022/03/19 01:43:14;;;;;;;67.40;41.60;;;;;;;2.18;44.59;103083.30;105763;1275;24247;-73
2022/03/19 01:45:41;;;;;;;72.50;39.30;;;;;;;2.11;44.59;103073.66;106051;1274;22894;-72
2022/03/19 01:48:07;;;;;;;65.10;38.20;;;;;;;2.05;44.70;103074.28;105979;1275;22555;-71
2022/03/19 01:50:33;;;;;;;61.90;36.40;;;;;;;2.01;44.87;103070.71;105473;1281;22575;-79
2022/03/19 01:52:59;;;;;;;77.20;39.50;;;;;;;1.98;44.68;103071.89;105506;1281;22590;-74
2022/03/19 01:55:27;;;;;;;69.50;39.50;;;;;;;1.95;44.81;103076.36;105485;1281;23980;-70
2022/03/19 01:57:55;;;;;;;59.60;38.80;;;;;;;1.93;44.80;103073.63;105283;1281;22564;-75
2022/03/19 02:00:24;;;;;;;70.20;38.10;;;;;;;1.87;44.86;103073.35;105421;1280;25248;-71
2022/03/19 02:02:51;;;;;;;73.00;40.10;;;;;;;1.79;45.28;103076.17;105846;1279;23932;-77
2022/03/19 02:05:21;;;;;;;61.40;37.80;;;;;;;1.76;45.31;103075.25;105512;1282;22571;-76
2022/03/19 02:07:48;;;;;;;70.50;40.70;;;;;;;1.69;45.38;103074.42;105700;1278;25420;-76
2022/03/19 02:10:16;;;;;;;67.50;38.70;;;;;;;1.61;45.24;103079.44;106053;1277;22733;-77
2022/03/19 02:12:44;;;;;;;68.10;40.20;;;;;;;1.59;45.60;103078.94;106380;1273;25270;-76
2022/03/19 02:15:12;;;;;;;67.20;38.50;;;;;;;1.63;45.71;103082.80;106041;1276;25319;-75
2022/03/19 02:17:39;;;;;;;63.30;38.80;;;;;;;1.65;45.76;103083.68;106108;1274;23225;-77
2022/03/19 02:20:06;;;;;;;68.50;40.50;;;;;;;1.65;45.89;103083.49;106088;1274;22697;-76
2022/03/19 02:22:33;;;;;;;67.90;39.40;;;;;;;1.63;46.13;103079.91;105935;1274;23094;-75
2022/03/19 02:27:45;;;;;;;68.10;40.60;;;;;;;1.63;46.43;103081.58;106080;1273;22675;-76
2022/03/19 02:30:15;;;;;;;68.70;40.40;;;;;;;1.59;46.61;103079.74;105932;1275;24193;-78
2022/03/19 02:32:49;;;;;;;66.00;41.30;;;;;;;1.52;46.77;103079.80;106280;1272;25711;-78
2022/03/19 02:35:18;;;;;;;69.60;39.30;;;;;;;1.49;46.83;103078.55;106028;1276;25686;-82
2022/03/19 02:37:49;;;;;;;83.00;42.70;;;;;;;1.51;46.76;103084.39;106479;1274;22634;-76
2022/03/19 02:40:20;;;;;;;78.00;39.90;;;;;;;1.47;46.70;103088.00;106285;1274;24265;-76
2022/03/19 02:42:50;;;;;;;79.30;43.30;;;;;;;1.46;46.65;103091.76;106047;1273;24355;-76
2022/03/19 02:45:18;;;;;;;68.80;40.90;;;;;;;1.43;46.42;103094.30;106095;1273;24283;-75
2022/03/19 02:47:59;;;;;;;65.90;39.60;;;;;;;1.40;46.85;103095.60;106129;1275;22601;-74
2022/03/19 02:50:36;;;;;;;65.10;41.10;;;;;;;1.35;46.99;103098.40;105911;1279;24086;-73
2022/03/19 02:53:05;;;;;;;72.40;41.10;;;;;;;1.33;47.03;103097.24;105712;1280;26030;-75
2022/03/19 02:55:33;;;;;;;69.80;44.90;;;;;;;1.35;47.10;103094.93;105682;1279;22499;-75
2022/03/19 02:58:01;;;;;;;64.70;42.10;;;;;;;1.35;47.15;103094.80;105673;1279;24294;-72
2022/03/19 03:00:28;;;;;;;81.00;45.20;;;;;;;1.35;47.12;103096.36;105736;1281;25951;-74
2022/03/19 03:02:56;;;;;;;77.00;43.00;;;;;;;1.34;46.92;103099.77;105748;1281;25377;-73
2022/03/19 03:05:22;;;;;;;69.80;43.00;;;;;;;1.31;47.11;103100.89;105640;1281;24177;-73
2022/03/19 03:07:48;;;;;;;75.50;43.60;;;;;;;1.27;47.44;103102.17;105503;1274;24885;-73
2022/03/19 03:10:17;;;;;;;78.40;43.30;;;;;;;1.28;47.44;103101.19;105235;1282;22752;-76
2022/03/19 03:12:43;;;;;;;74.10;42.30;;;;;;;1.28;47.47;103106.89;105747;1279;25656;-79
2022/03/19 03:15:10;;;;;;;74.30;44.90;;;;;;;1.22;47.46;103103.70;105744;1279;22750;-74
2022/03/19 03:17:37;;;;;;;74.20;42.50;;;;;;;1.16;47.53;103098.98;105626;1280;26527;-71
2022/03/19 03:20:04;;;;;;;84.60;42.10;;;;;;;1.15;47.89;103097.84;105820;1279;22493;-72
2022/03/19 03:22:31;;;;;;;76.00;44.50;;;;;;;1.14;47.97;103097.96;105489;1279;24172;-74
2022/03/19 03:24:57;;;;;;;71.40;42.20;;;;;;;1.16;47.92;103104.64;105922;1279;25389;-70
2022/03/19 03:27:23;;;;;;;79.20;44.30;;;;;;;1.13;47.86;103101.36;105802;1279;25475;-73
2022/03/19 03:29:50;;;;;;;83.50;44.90;;;;;;;1.08;47.99;103101.70;105619;1280;25585;-75
2022/03/19 03:32:17;;;;;;;83.30;46.30;;;;;;;1.06;47.97;103105.45;105635;1279;25497;-74
2022/03/19 03:34:43;;;;;;;88.80;46.80;;;;;;;1.09;47.74;103102.58;105648;1274;23978;-79
2022/03/19 03:37:09;;;;;;;87.10;49.70;;;;;;;1.09;47.87;103104.73;105990;1274;24237;-72
2022/03/19 03:39:36;;;;;;;88.00;50.00;;;;;;;1.09;47.66;103105.54;106067;1274;24901;-73
2022/03/19 03:42:02;;;;;;;84.20;48.00;;;;;;;1.08;47.51;103109.67;105884;1276;25318;-73
2022/03/19 03:44:28;;;;;;;96.10;50.20;;;;;;;1.04;47.65;103108.45;106014;1274;23964;-72
2022/03/19 03:46:55;;;;;;;94.60;52.30;;;;;;;1.03;48.01;103114.94;106042;1274;25268;-73
2022/03/19 03:49:21;;;;;;;103.30;53.80;;;;;;;0.97;48.00;103111.96;105993;1274;25475;-74
2022/03/19 03:51:47;;;;;;;90.10;51.00;;;;;;;0.91;48.20;103111.35;105949;1274;22688;-78
2022/03/19 03:54:14;;;;;;;96.70;50.60;;;;;;;0.93;48.30;103109.12;105789;1275;25590;-78
2022/03/19 03:56:40;;;;;;;115.90;57.10;;;;;;;0.92;48.47;103107.60;105952;1275;25417;-73
2022/03/19 03:59:06;;;;;;;117.70;59.30;;;;;;;0.81;48.38;103107.65;105994;1274;22810;-69
2022/03/19 04:01:32;;;;;;;123.80;59.20;;;;;;;0.78;48.57;103108.66;105032;1282;22616;-72
2022/03/19 04:03:59;;;;;;;126.40;61.20;;;;;;;0.81;48.91;103109.23;105398;1279;24070;-73
2022/03/19 04:06:25;;;;;;;131.00;61.00;;;;;;;0.84;48.95;103109.82;105504;1279;24288;-72
2022/03/19 04:08:51;;;;;;;133.10;63.50;;;;;;;0.85;49.10;103106.42;105442;1280;24269;-73
2022/03/19 04:11:18;;;;;;;133.20;63.30;;;;;;;0.88;49.02;103108.89;105480;1280;25556;-71
2022/03/19 04:13:44;;;;;;;144.10;64.40;;;;;;;0.89;48.82;103111.69;105498;1279;24270;-71
2022/03/19 04:16:10;;;;;;;131.40;65.70;;;;;;;0.86;48.87;103111.73;105418;1279;22878;-73
2022/03/19 04:18:36;;;;;;;135.80;63.00;;;;;;;0.85;48.94;103108.45;105386;1280;23944;-72
2022/03/19 04:21:03;;;;;;;133.80;64.10;;;;;;;0.82;48.77;103107.21;105966;1274;25524;-70
2022/03/19 04:23:29;;;;;;;131.70;63.40;;;;;;;0.81;48.87;103111.13;105909;1273;25445;-73
2022/03/19 04:25:55;;;;;;;136.00;65.30;;;;;;;0.78;48.78;103115.42;106239;1274;25892;-73
2022/03/19 04:28:21;;;;;;;140.20;64.70;;;;;;;0.73;48.80;103107.61;106157;1273;24295;-76
2022/03/19 04:30:48;;;;;;;132.90;62.20;;;;;;;0.78;48.76;103116.30;105963;1273;25344;-80
2022/03/19 04:33:21;;;;;;;128.50;62.20;;;;;;;0.76;48.72;103116.13;106280;1273;25519;-75
2022/03/19 04:38:33;;;;;;;130.10;63.90;;;;;;;0.74;48.62;103119.64;105895;1271;24329;-76
2022/03/19 04:41:00;;;;;;;137.90;66.40;;;;;;;0.70;48.32;103121.43;105740;1279;22569;-76
2022/03/19 04:43:26;;;;;;;137.00;67.20;;;;;;;0.61;48.42;103119.54;105179;1285;24220;-75
2022/03/19 04:45:53;;;;;;;145.90;68.30;;;;;;;0.54;48.36;103122.09;104986;1285;22594;-74
2022/03/19 04:48:19;;;;;;;153.50;70.20;;;;;;;0.50;48.80;103118.41;105259;1284;25519;-73
2022/03/19 04:50:47;;;;;;;150.90;66.00;;;;;;;0.49;48.83;103117.97;105093;1285;22561;-74
2022/03/19 04:53:13;;;;;;;149.20;68.60;;;;;;;0.51;48.94;103117.22;105147;1284;23031;-74
2022/03/19 04:55:40;;;;;;;139.50;68.50;;;;;;;0.56;48.85;103121.45;105256;1284;25483;-73
2022/03/19 04:58:08;;;;;;;145.00;65.00;;;;;;;0.61;48.70;103125.77;105296;1283;25482;-73
2022/03/19 05:00:37;;;;;;;156.40;71.30;;;;;;;0.59;48.55;103121.85;105254;1285;22573;-73
2022/03/19 05:03:05;;;;;;;131.40;63.70;;;;;;;0.62;48.80;103122.72;105179;1285;23954;-74
2022/03/19 05:05:32;;;;;;;139.80;69.50;;;;;;;0.65;48.68;103126.23;105531;1278;26523;-74
2022/03/19 05:07:59;;;;;;;147.90;68.90;;;;;;;0.66;48.60;103129.48;105968;1277;24012;-74
2022/03/19 05:13:11;;;;;;;128.40;63.30;;;;;;;0.61;48.50;103133.81;105921;1279;22878;-76
2022/03/19 05:15:37;;;;;;;140.30;67.20;;;;;;;0.55;48.62;103131.91;105837;1279;24218;-78
2022/03/19 05:18:04;;;;;;;151.80;66.40;;;;;;;0.48;48.67;103135.20;105965;1279;23960;-75
2022/03/19 05:20:34;;;;;;;143.40;65.70;;;;;;;0.48;48.70;103135.77;105859;1274;24232;-74
2022/03/19 05:23:00;;;;;;;142.20;67.80;;;;;;;0.52;48.81;103138.14;106188;1274;22663;-73
2022/03/19 05:25:26;;;;;;;139.30;67.20;;;;;;;0.51;48.90;103134.94;106091;1275;22697;-71
2022/03/19 05:27:52;;;;;;;136.70;64.30;;;;;;;0.49;48.97;103138.23;106036;1274;22621;-76
2022/03/19 05:30:19;;;;;;;145.20;67.80;;;;;;;0.48;49.25;103141.10;105553;1282;22548;-74
2022/03/19 05:32:46;;;;;;;162.00;71.60;;;;;;;0.51;49.29;103143.05;105774;1279;24239;-75
2022/03/19 05:35:13;;;;;;;163.30;74.80;;;;;;;0.57;49.19;103143.36;105962;1279;24224;-76
2022/03/19 05:37:40;;;;;;;157.80;72.70;;;;;;;0.63;49.27;103145.16;105990;1279;22770;-73
2022/03/19 05:40:06;;;;;;;147.80;70.00;;;;;;;0.67;49.27;103147.93;105957;1279;24350;-75
2022/03/19 05:42:33;;;;;;;157.90;74.20;;;;;;;0.66;49.33;103150.80;105679;1280;22749;-73
2022/03/19 05:44:59;;;;;;;153.00;71.50;;;;;;;0.62;49.46;103150.82;105532;1279;22730;-75
2022/03/19 05:47:26;;;;;;;153.20;70.80;;;;;;;0.57;49.69;103150.61;105761;1279;25459;-72
2022/03/19 05:49:53;;;;;;;162.10;73.80;;;;;;;0.56;49.69;103157.00;106058;1274;22698;-75
2022/03/19 05:52:19;;;;;;;149.40;71.90;;;;;;;0.54;49.52;103160.48;106174;1273;22594;-73
2022/03/19 05:54:46;;;;;;;141.10;68.10;;;;;;;0.53;49.67;103164.38;106019;1274;25444;-73
2022/03/19 05:57:12;;;;;;;131.90;64.60;;;;;;;0.54;49.89;103164.66;105984;1275;26533;-77
2022/03/19 05:59:38;;;;;;;144.20;68.20;;;;;;;0.59;49.36;103166.92;106116;1274;25325;-77
2022/03/19 06:02:06;;;;;;;138.50;67.10;;;;;;;0.66;49.28;103163.80;106187;1274;24262;-78
2022/03/19 06:04:34;;;;;;;138.40;67.60;;;;;;;0.77;49.04;103163.94;105487;1281;25230;-77
2022/03/19 06:07:01;;;;;;;141.70;71.30;;;;;;;0.87;48.94;103169.73;105714;1279;22953;-81
2022/03/19 06:09:27;;;;;;;165.70;74.60;;;;;;;0.95;48.86;103172.27;105705;1279;24793;-78
2022/03/19 06:11:53;;;;;;;155.90;73.80;;;;;;;1.03;48.91;103177.48;105598;1278;22836;-78
2022/03/19 06:14:20;;;;;;;161.20;76.60;;;;;;;1.07;48.91;103174.33;105642;1279;22841;-79
2022/03/19 06:16:46;;;;;;;168.90;77.50;;;;;;;1.14;48.96;103180.35;105607;1279;25441;-81
2022/03/19 06:19:12;;;;;;;155.10;73.70;;;;;;;1.19;48.91;103183.14;105685;1279;22695;-82
2022/03/19 06:21:40;;;;;;;161.70;76.10;;;;;;;1.24;48.82;103189.25;105786;1279;22505;-78
2022/03/19 06:24:08;;;;;;;155.50;75.10;;;;;;;1.29;48.74;103189.63;106314;1274;25393;-79
2022/03/19 06:26:34;;;;;;;160.00;72.80;;;;;;;1.32;48.65;103197.83;106096;1275;25390;-79
2022/03/19 06:29:01;;;;;;;162.40;73.80;;;;;;;1.35;48.60;103199.66;106266;1275;25425;-86
2022/03/19 06:31:27;;;;;;;159.50;74.50;;;;;;;1.40;48.46;103201.06;106345;1279;22502;-86
2022/03/19 06:33:54;;;;;;;153.90;73.10;;;;;;;1.45;48.44;103205.58;106466;1279;25709;-86
2022/03/19 06:39:06;;;;;;;169.60;76.80;;;;;;;1.54;48.51;103213.13;105502;1284;25390;-80
2022/03/19 06:41:34;;;;;;;148.70;72.50;;;;;;;1.56;48.55;103213.83;105423;1285;24312;-78
2022/03/19 06:44:00;;;;;;;148.10;71.80;;;;;;;1.60;48.57;103213.23;104791;1290;24349;-79
2022/03/19 06:46:27;;;;;;;152.60;72.50;;;;;;;1.65;48.35;103219.02;104893;1288;22520;-80
2022/03/19 06:48:53;;;;;;;149.90;70.50;;;;;;;1.63;48.23;103214.16;105199;1290;23962;-80
2022/03/19 06:51:20;;;;;;;153.70;72.50;;;;;;;1.61;48.17;103217.86;104467;1293;22526;-80
2022/03/19 06:53:47;;;;;;;129.40;67.40;;;;;;;1.62;48.19;103220.52;104036;1296;24724;-81
2022/03/19 06:56:14;;;;;;;144.50;70.70;;;;;;;1.72;48.47;103221.59;104381;1291;24374;-80
2022/03/19 06:58:44;;;;;;;140.50;69.10;;;;;;;1.80;48.38;103222.02;104768;1287;22556;-80
2022/03/19 07:01:15;;;;;;;146.40;69.20;;;;;;;1.86;48.21;103215.81;105040;1287;22761;-80
2022/03/19 07:03:43;;;;;;;148.60;67.90;;;;;;;1.97;47.83;103225.64;105677;1279;22672;-82
2022/03/19 07:06:11;;;;;;;145.10;67.60;;;;;;;2.04;47.84;103223.33;105084;1287;24247;-80
2022/03/19 07:08:57;;;;;;;137.30;64.30;;;;;;;2.13;47.52;103230.45;104703;1287;25512;-76
2022/03/19 07:11:23;;;;;;;131.10;62.30;;;;;;;2.20;47.17;103225.88;104938;1287;22551;-78
2022/03/19 07:13:50;;;;;;;116.00;58.40;;;;;;;2.28;46.90;103226.77;104969;1287;26112;-77
2022/03/19 07:16:16;;;;;;;113.70;54.40;;;;;;;2.39;46.48;103224.27;104594;1283;22580;-79
2022/03/19 07:18:42;;;;;;;102.60;53.40;;;;;;;2.47;46.03;103227.40;104956;1285;24305;-77
2022/03/19 07:21:10;;;;;;;103.00;53.70;;;;;;;2.54;45.93;103229.64;105016;1285;22674;-77
2022/03/19 07:23:36;;;;;;;93.60;50.10;;;;;;;2.68;45.54;103236.16;105286;1277;25236;-77
2022/03/19 07:26:04;;;;;;;86.30;46.60;;;;;;;2.79;45.25;103233.58;105816;1277;25334;-77
2022/03/19 07:28:30;;;;;;;77.10;46.50;;;;;;;2.92;44.97;103229.59;105921;1278;24783;-78
2022/03/19 07:30:57;;;;;;;72.60;44.30;;;;;;;3.04;44.38;103230.79;105767;1279;22725;-82
2022/03/19 07:33:24;;;;;;;73.20;41.10;;;;;;;3.09;43.70;103231.63;105758;1277;22574;-77
2022/03/19 07:35:50;;;;;;;69.50;41.00;;;;;;;3.15;43.51;103231.66;106367;1273;22539;-82
2022/03/19 07:38:16;;;;;;;67.00;40.30;;;;;;;3.25;43.21;103233.55;107050;1273;23057;-83
2022/03/19 07:43:29;;;;;;;66.20;39.80;;;;;;;3.46;42.65;103231.05;106816;1279;22788;-82
2022/03/19 07:45:56;;;;;;;84.40;42.20;;;;;;;3.59;42.64;103236.96;106133;1281;22643;-82
2022/03/19 07:48:22;;;;;;;73.80;40.30;;;;;;;3.72;42.56;103235.52;105353;1285;22592;-81
2022/03/19 07:50:55;;;;;;;63.60;38.60;;;;;;;3.82;42.02;103236.55;104985;1287;25477;-81
2022/03/19 07:53:21;;;;;;;75.00;44.20;;;;;;;3.91;41.74;103242.33;105280;1285;22581;-82
2022/03/19 07:55:48;;;;;;;73.20;43.60;;;;;;;4.01;41.67;103242.41;104901;1286;25958;-81
2022/03/19 07:58:17;;;;;;;75.00;44.80;;;;;;;4.11;41.57;103240.98;105230;1282;24485;-81
2022/03/19 08:00:44;;;;;;;101.70;44.40;;;;;;;4.20;41.52;103242.08;105495;1282;24270;-81
2022/03/19 08:03:10;;;;;;;76.40;46.10;;;;;;;4.32;41.43;103247.86;105519;1282;24284;-83
2022/03/19 08:05:39;;;;;;;74.50;42.60;;;;;;;4.43;41.34;103246.98;104987;1282;25554;-84
2022/03/19 08:08:06;;;;;;;75.70;40.60;;;;;;;4.53;40.91;103247.41;105566;1281;22552;-82
2022/03/19 08:10:35;;;;;;;70.10;42.50;;;;;;;4.64;40.56;103248.61;105297;1284;24279;-80
2022/03/19 08:13:06;;;;;;;66.50;41.70;;;;;;;4.77;40.45;103249.73;105244;1284;25549;-79
2022/03/19 08:15:33;;;;;;;72.40;43.40;;;;;;;4.89;39.96;103248.41;104767;1288;22816;-82
2022/03/19 08:17:59;;;;;;;72.50;41.80;;;;;;;5.02;39.81;103252.80;104718;1288;22702;-78
2022/03/19 08:20:27;;;;;;;67.50;41.80;;;;;;;5.14;39.62;103254.73;104792;1288;25392;-81
2022/03/19 08:22:54;;;;;;;69.60;41.50;;;;;;;5.27;39.30;103257.94;104846;1282;22708;-82
2022/03/19 08:25:21;;;;;;;66.00;40.30;;;;;;;5.41;39.16;103263.45;105263;1284;24256;-79
2022/03/19 08:27:50;;;;;;;72.50;42.60;;;;;;;5.52;38.80;103257.45;105336;1280;22698;-79
2022/03/19 08:30:19;;;;;;;72.50;42.90;;;;;;;5.63;38.50;103258.79;106051;1278;26513;-81
2022/03/19 08:32:45;;;;;;;75.00;40.90;;;;;;;5.74;38.37;103260.66;105957;1279;22567;-84
2022/03/19 08:35:12;;;;;;;63.30;38.10;;;;;;;5.89;38.20;103262.34;106296;1273;24869;-80
2022/03/19 08:37:45;;;;;;;65.10;40.30;;;;;;;6.03;37.99;103264.02;106924;1273;22833;-80
2022/03/19 08:40:16;;;;;;;63.80;37.10;;;;;;;6.19;37.67;103267.04;106686;1273;26051;-77
2022/03/19 08:42:44;;;;;;;67.20;39.50;;;;;;;6.37;37.43;103260.80;106156;1273;22687;-79
2022/03/19 08:45:11;;;;;;;59.40;35.60;;;;;;;6.51;37.12;103256.46;106453;1273;22643;-81
2022/03/19 08:47:37;;;;;;;55.70;34.20;;;;;;;6.68;36.59;103258.08;106229;1274;22543;-81
2022/03/19 08:50:04;;;;;;;44.20;27.60;;;;;;;6.85;36.34;103253.67;106194;1273;22531;-76
2022/03/19 08:52:30;;;;;;;46.50;27.00;;;;;;;7.01;35.69;103248.08;106710;1273;22476;-75
2022/03/19 08:54:56;;;;;;;34.60;19.60;;;;;;;7.16;35.32;103248.99;106301;1275;25378;-79
2022/03/19 08:57:23;;;;;;;31.20;18.50;;;;;;;7.31;34.74;103246.08;106759;1273;25270;-75
2022/03/19 08:59:49;;;;;;;25.60;17.10;;;;;;;7.49;34.40;103250.63;106712;1274;23892;-79
2022/03/19 09:02:35;;;;;;;28.20;17.20;;;;;;;7.66;33.98;103251.97;106296;1274;25346;-80
2022/03/19 09:05:02;;;;;;;25.00;17.60;;;;;;;7.84;33.60;103249.48;106147;1276;22543;-81
2022/03/19 09:07:29;;;;;;;20.20;12.20;;;;;;;8.03;33.17;103252.48;105902;1275;24798;-76
2022/03/19 09:09:55;;;;;;;15.50;10.60;;;;;;;8.16;32.49;103249.61;106031;1274;25417;-80
2022/03/19 09:12:33;;;;;;;15.90;9.80;;;;;;;8.36;32.19;103254.23;105863;1276;22551;-81
2022/03/19 09:14:59;;;;;;;11.30;8.40;;;;;;;8.53;31.75;103247.95;106094;1276;22535;-80
2022/03/19 09:17:27;;;;;;;12.50;8.30;;;;;;;8.72;31.54;103244.09;106138;1276;25676;-80
2022/03/19 09:19:54;;;;;;;12.50;8.20;;;;;;;8.91;30.80;103245.61;106023;1276;25459;-83
2022/03/19 09:22:20;;;;;;;12.90;8.80;;;;;;;9.02;30.13;103246.98;106024;1276;24195;-80
2022/03/19 09:24:46;;;;;;;14.70;8.20;;;;;;;9.13;29.83;103249.87;105789;1276;22736;-79
2022/03/19 09:27:13;;;;;;;11.00;8.30;;;;;;;9.32;29.84;103245.39;105945;1275;24442;-82
2022/03/19 09:29:42;;;;;;;11.10;8.00;;;;;;;9.55;29.74;103244.07;105929;1274;22550;-78
2022/03/19 09:32:12;;;;;;;12.80;8.40;;;;;;;9.79;29.84;103244.66;106022;1276;24262;-80
2022/03/19 09:34:40;;;;;;;13.80;8.90;;;;;;;10.03;29.08;103244.86;105821;1274;25526;-78
2022/03/19 09:37:06;;;;;;;10.50;7.80;;;;;;;10.19;29.10;103250.27;105627;1281;22549;-80
2022/03/19 09:39:36;;;;;;;11.80;7.30;;;;;;;10.38;28.68;103242.35;105109;1287;22668;-77
2022/03/19 09:42:04;;;;;;;9.40;7.60;;;;;;;10.58;28.30;103244.89;105001;1287;24002;-72
2022/03/19 09:44:32;;;;;;;10.30;7.20;;;;;;;10.79;28.11;103237.86;105155;1285;24253;-73
2022/03/19 09:47:03;;;;;;;10.20;7.60;;;;;;;10.95;27.71;103233.46;105145;1285;25411;-78
2022/03/19 09:49:31;;;;;;;10.80;7.90;;;;;;;11.01;27.11;103240.73;105244;1284;22554;-78
2022/03/19 09:52:01;;;;;;;12.50;7.50;;;;;;;11.10;27.22;103241.92;104473;1290;24313;-78
2022/03/19 09:54:28;;;;;;;10.30;6.90;;;;;;;11.21;26.83;103244.42;104574;1288;22672;-76
2022/03/19 09:56:55;;;;;;;10.70;7.70;;;;;;;11.31;27.31;103236.29;104621;1290;22646;-75
2022/03/19 09:59:22;;;;;;;11.10;7.60;;;;;;;11.50;26.92;103235.50;104609;1290;23715;-82
2022/03/19 10:01:49;;;;;;;10.90;7.20;;;;;;;11.63;26.54;103237.67;104507;1290;22571;-75
2022/03/19 10:04:18;;;;;;;10.60;7.60;;;;;;;11.78;26.62;103236.71;104699;1285;24239;-74
2022/03/19 10:09:48;;;;;;;10.70;7.00;;;;;;;12.24;26.15;103231.26;105163;1284;24517;-75
2022/03/19 10:12:20;;;;;;;9.80;7.40;;;;;;;12.44;25.90;103229.17;105040;1285;24410;-73
2022/03/19 10:14:54;;;;;;;10.40;7.30;;;;;;;12.61;25.72;103234.79;105288;1279;22532;-75
2022/03/19 10:17:28;;;;;;;13.70;8.40;;;;;;;12.74;25.73;103234.09;105574;1277;317147;-76
2022/03/19 10:20:03;;;;;;;14.70;7.50;;;;;;;12.90;25.29;103236.44;106085;1274;25271;-77
2022/03/19 10:22:30;;;;;;;10.50;8.10;;;;;;;13.01;25.11;103235.52;106177;1276;22626;-86
2022/03/19 10:25:04;;;;;;;9.80;8.20;;;;;;;13.16;25.09;103236.95;105909;1276;22577;-85
2022/03/19 10:27:34;;;;;;;8.30;7.20;;;;;;;13.34;24.93;103231.39;106100;1275;22545;-84
2022/03/19 10:30:05;;;;;;;12.50;8.20;;;;;;;13.44;24.48;103228.07;106260;1276;22544;-86
2022/03/19 10:32:31;;;;;;;12.40;9.10;;;;;;;13.39;24.32;103224.97;106244;1276;22633;-87
2022/03/19 10:34:58;;;;;;;11.30;8.10;;;;;;;13.49;24.02;103221.48;106140;1276;24633;-84
2022/03/19 10:37:39;;;;;;;10.90;7.90;;;;;;;13.55;24.04;103218.10;105706;1279;22736;-89
2022/03/19 10:40:09;;;;;;;10.30;8.00;;;;;;;13.67;23.58;103216.27;105744;1279;22569;-86
2022/03/19 10:42:40;;;;;;;10.00;7.50;;;;;;;13.72;23.55;103216.39;105539;1284;22547;-86
2022/03/19 10:45:12;;;;;;;12.60;8.40;;;;;;;13.80;23.64;103215.86;105096;1285;24662;-86
2022/03/19 10:47:45;;;;;;;11.40;7.40;;;;;;;14.02;23.55;103210.14;105115;1285;22528;-85
2022/03/19 10:50:21;;;;;;;12.30;7.40;;;;;;;14.21;23.27;103209.64;106814;1284;22506;-83
2022/03/19 10:52:50;;;;;;;9.80;7.20;;;;;;;14.34;22.67;103210.80;107996;1284;22551;-84
2022/03/19 10:55:17;;;;;;;8.80;6.90;;;;;;;14.41;22.51;103203.14;105354;1279;26508;-86
2022/03/19 10:57:45;;;;;;;8.60;6.90;;;;;;;14.51;22.51;103198.19;107323;1283;22960;-84
2022/03/19 11:00:12;;;;;;;9.20;7.00;;;;;;;14.61;22.19;103196.42;106882;1279;22848;-83
2022/03/19 11:02:46;;;;;;;11.00;7.10;;;;;;;14.82;22.07;103200.38;107607;1279;24350;-87
2022/03/19 11:05:17;;;;;;;12.00;6.90;;;;;;;15.01;22.10;103197.89;106199;1279;25377;-85
2022/03/19 11:07:46;;;;;;;9.20;6.50;;;;;;;15.14;21.93;103193.48;105935;1279;22553;-84
2022/03/19 11:10:13;;;;;;;10.80;6.70;;;;;;;15.29;21.65;103187.15;105697;1281;24256;-86
2022/03/19 11:12:43;;;;;;;9.60;5.90;;;;;;;15.40;21.30;103188.56;105897;1282;25677;-83
2022/03/19 11:15:11;;;;;;;10.30;6.90;;;;;;;15.43;21.08;103197.14;106065;1277;24359;-84
2022/03/19 11:17:40;;;;;;;11.00;6.20;;;;;;;15.52;20.93;103195.32;106228;1274;23201;-84
2022/03/19 11:20:12;;;;;;;9.30;6.40;;;;;;;15.62;20.79;103188.36;106223;1277;22570;-85
2022/03/19 11:22:46;;;;;;;8.40;6.10;;;;;;;15.68;20.63;103192.19;106228;1279;25386;-85
2022/03/19 11:25:31;;;;;;;8.70;6.00;;;;;;;15.73;20.74;103190.83;106483;1279;24593;-85